Time;durP1;ratioP1;P1;durP2;ratioP2;P2;SDS_P1;SDS_P2;PMS_P1;PMS_P2;Temp;Humidity;BMP_temperature;BMP_pressure;BME280_temperature;BME280_humidity;BME280_pressure;Samples;Min_cycle;Max_cycle;Signal;HPM_P1;HPM_P2
2022/01/18 00:00:45;;;;;;;16.65;9.18;;;7.50;99.90;;;;;;5114625;28;20024;-69
2022/01/18 00:03:10;;;;;;;13.77;8.52;;;7.50;99.90;;;;;;5112385;28;20531;-67
2022/01/18 00:05:36;;;;;;;22.00;8.80;;;7.50;99.90;;;;;;5114220;28;20028;-71
2022/01/18 00:08:02;;;;;;;16.98;8.00;;;7.60;99.90;;;;;;5113631;28;20445;-71
2022/01/18 00:10:30;;;;;;;18.25;8.23;;;7.70;99.90;;;;;;5113953;28;20429;-73
2022/01/18 00:13:09;;;;;;;18.65;9.23;;;7.70;99.90;;;;;;5114100;28;20457;-68
2022/01/18 00:18:10;;;;;;;11.85;6.70;;;7.70;99.90;;;;;;5113695;28;20028;-68
2022/01/18 00:23:20;;;;;;;10.07;5.22;;;7.60;99.90;;;;;;5113985;28;20382;-67
2022/01/18 00:25:50;;;;;;;14.05;4.20;;;7.70;99.90;;;;;;5112539;28;20040;-69
2022/01/18 00:28:16;;;;;;;11.38;4.13;;;7.70;99.90;;;;;;5113594;28;20369;-68
2022/01/18 00:36:24;;;;;;;7.13;3.13;;;7.70;99.90;;;;;;5113854;28;20395;-69
2022/01/18 00:38:50;;;;;;;12.73;2.70;;;7.70;99.90;;;;;;5114309;28;20368;-69
2022/01/18 00:41:20;;;;;;;10.63;3.13;;;7.70;99.90;;;;;;5112542;28;20024;-67
2022/01/18 00:43:46;;;;;;;11.45;2.63;;;7.70;99.90;;;;;;5114335;28;20020;-70
2022/01/18 00:46:13;;;;;;;9.23;2.65;;;7.60;99.90;;;;;;5115227;28;20078;-70
2022/01/18 00:48:42;;;;;;;7.72;2.08;;;7.70;99.90;;;;;;5115131;28;20377;-72
2022/01/18 00:51:12;;;;;;;7.70;2.38;;;7.70;99.90;;;;;;5113633;28;20019;-69
2022/01/18 00:53:44;;;;;;;8.10;2.67;;;7.60;99.90;;;;;;5116093;28;20028;-67
2022/01/18 00:58:38;;;;;;;15.77;2.90;;;7.60;99.90;;;;;;5114540;28;20586;-69
2022/01/18 01:01:04;;;;;;;9.45;2.17;;;7.60;99.90;;;;;;5113113;28;20024;-68
2022/01/18 01:03:29;;;;;;;9.25;1.80;;;7.70;99.90;;;;;;5112215;28;20024;-69
2022/01/18 01:05:55;;;;;;;4.22;1.63;;;7.70;99.90;;;;;;5111823;28;20038;-71
2022/01/18 01:08:21;;;;;;;4.63;1.30;;;7.70;99.90;;;;;;5112536;28;20537;-71
2022/01/18 01:10:47;;;;;;;6.75;1.70;;;7.70;99.90;;;;;;5112825;28;20118;-70
2022/01/18 01:13:14;;;;;;;6.72;1.40;;;7.60;99.90;;;;;;5113206;28;20430;-69
2022/01/18 01:16:47;;;;;;;7.15;2.35;;;7.70;99.90;;;;;;5112856;28;20458;-68
2022/01/18 01:19:04;;;;;;;12.30;1.98;;;7.70;99.90;;;;;;5105549;28;20031;-70
2022/01/18 01:33:12;;;;;;;7.45;2.60;;;7.60;99.90;;;;;;5114643;28;20107;-70
2022/01/18 01:45:48;;;;;;;8.10;4.13;;;7.80;99.90;;;;;;5111709;28;20103;-67
2022/01/18 01:48:14;;;;;;;10.60;4.13;;;7.70;99.90;;;;;;5113978;28;20072;-68
2022/01/18 01:50:53;;;;;;;10.63;4.75;;;7.80;99.90;;;;;;5117444;28;20027;-67
2022/01/18 01:53:21;;;;;;;15.90;5.10;;;7.80;99.90;;;;;;5116784;28;20031;-67
2022/01/18 01:55:47;;;;;;;11.70;6.15;;;7.90;99.90;;;;;;5116280;28;20043;-67
2022/01/18 01:58:14;;;;;;;12.38;6.25;;;7.80;99.90;;;;;;5116569;28;20057;-68
2022/01/18 02:00:46;;;;;;;17.42;7.80;;;7.80;99.90;;;;;;5115776;28;20019;-70
2022/01/18 02:03:13;;;;;;;15.32;7.97;;;7.60;99.90;;;;;;5116197;27;20030;-68
2022/01/18 02:05:39;;;;;;;12.57;7.60;;;7.60;99.90;;;;;;5117117;28;20035;-69
2022/01/18 02:08:07;;;;;;;15.73;9.07;;;7.50;99.90;;;;;;5114729;28;20073;-67
2022/01/18 02:10:36;;;;;;;17.00;7.75;;;7.50;99.90;;;;;;5115523;28;20024;-68
2022/01/18 02:13:04;;;;;;;12.52;7.72;;;7.40;99.90;;;;;;5115712;28;20134;-69
2022/01/18 02:15:30;;;;;;;17.13;7.93;;;7.40;99.90;;;;;;5117010;28;20056;-67
2022/01/18 02:23:28;;;;;;;14.65;8.55;;;7.30;99.90;;;;;;5116745;28;20059;-68
2022/01/18 02:25:54;;;;;;;17.10;9.30;;;7.40;99.90;;;;;;5116340;28;20028;-67
2022/01/18 02:28:22;;;;;;;16.48;8.27;;;7.40;99.90;;;;;;5115919;28;20113;-68
2022/01/18 02:30:49;;;;;;;18.92;9.52;;;7.40;99.90;;;;;;5115034;28;20245;-71
2022/01/18 02:33:15;;;;;;;14.90;8.35;;;7.50;99.90;;;;;;5115531;28;20028;-67
2022/01/18 02:35:41;;;;;;;14.82;8.52;;;7.40;99.90;;;;;;5116170;28;20472;-67
2022/01/18 02:38:06;;;;;;;12.93;7.45;;;7.40;99.90;;;;;;5114165;28;20045;-67
2022/01/18 02:40:33;;;;;;;20.52;10.02;;;7.40;99.90;;;;;;5116146;28;20487;-69
2022/01/18 02:43:46;;;;;;;13.90;7.72;;;7.40;99.90;;;;;;5114698;28;20023;-70
2022/01/18 02:45:49;;;;;;;17.17;7.32;;;7.40;99.90;;;;;;5115716;28;20076;-67
2022/01/18 02:48:16;;;;;;;12.48;7.65;;;7.50;99.90;;;;;;5113840;28;20476;-68
2022/01/18 02:50:42;;;;;;;14.05;7.97;;;7.50;99.90;;;;;;5115047;28;20065;-69
2022/01/18 02:53:08;;;;;;;20.70;7.45;;;7.50;99.90;;;;;;5115389;28;20028;-69
2022/01/18 02:55:34;;;;;;;13.98;7.25;;;7.50;99.90;;;;;;5114629;28;20036;-69
2022/01/18 02:58:05;;;;;;;12.95;6.70;;;7.50;99.90;;;;;;5115534;28;20027;-69
2022/01/18 03:00:43;;;;;;;12.55;5.93;;;7.50;99.90;;;;;;5118065;28;20023;-68
2022/01/18 03:03:15;;;;;;;11.20;5.90;;;7.50;99.90;;;;;;5117049;28;20027;-67
2022/01/18 03:05:43;;;;;;;12.60;5.68;;;7.50;99.90;;;;;;5117137;28;20036;-68
2022/01/18 03:08:10;;;;;;;13.68;5.35;;;7.50;99.90;;;;;;5117344;28;20027;-68
2022/01/18 03:10:40;;;;;;;11.60;4.93;;;7.50;99.90;;;;;;5117573;28;20354;-68
2022/01/18 03:13:07;;;;;;;14.05;4.78;;;7.50;99.90;;;;;;5115085;28;20027;-68
2022/01/18 03:15:34;;;;;;;11.02;3.67;;;7.50;99.90;;;;;;5115502;28;20070;-68
2022/01/18 03:18:03;;;;;;;17.80;4.57;;;7.60;99.90;;;;;;5115164;28;20064;-67
2022/01/18 03:20:30;;;;;;;7.65;3.03;;;7.60;99.90;;;;;;5114498;28;20024;-67
2022/01/18 03:22:55;;;;;;;9.75;3.30;;;7.50;99.90;;;;;;5114819;28;20075;-67
2022/01/18 03:25:27;;;;;;;13.70;3.75;;;7.50;99.90;;;;;;5114208;28;20039;-67
2022/01/18 03:28:04;;;;;;;12.65;3.38;;;7.60;99.90;;;;;;5114795;28;20481;-70
2022/01/18 03:30:34;;;;;;;9.85;3.00;;;7.60;99.90;;;;;;5115169;28;20496;-68
2022/01/18 03:33:01;;;;;;;9.65;3.67;;;7.60;99.90;;;;;;5114878;28;20019;-67
2022/01/18 03:35:27;;;;;;;11.90;2.33;;;7.60;99.90;;;;;;5113731;28;20400;-69
2022/01/18 03:37:52;;;;;;;11.80;2.65;;;7.60;99.90;;;;;;5115592;28;20023;-68
2022/01/18 03:40:19;;;;;;;6.00;2.55;;;7.50;99.90;;;;;;5115751;27;20027;-67
2022/01/18 03:42:46;;;;;;;12.93;3.00;;;7.60;99.90;;;;;;5115658;28;20028;-68
2022/01/18 03:45:18;;;;;;;8.00;2.53;;;7.60;99.90;;;;;;5112863;28;20429;-70
2022/01/18 03:47:45;;;;;;;6.70;2.50;;;7.60;99.90;;;;;;5113956;28;20027;-69
2022/01/18 03:50:13;;;;;;;12.07;2.50;;;7.60;99.90;;;;;;5114354;28;20028;-69
2022/01/18 03:52:40;;;;;;;9.10;1.98;;;7.60;99.90;;;;;;5115676;28;20019;-68
2022/01/18 03:55:09;;;;;;;10.82;2.00;;;7.70;99.90;;;;;;5115065;28;20480;-68
2022/01/18 03:57:35;;;;;;;7.30;1.73;;;7.60;99.90;;;;;;5113764;28;20028;-70
2022/01/18 04:00:01;;;;;;;5.43;2.15;;;7.60;99.90;;;;;;5114290;28;20028;-67
2022/01/18 04:02:26;;;;;;;10.38;1.88;;;7.60;99.90;;;;;;5112384;28;20030;-68
2022/01/18 04:04:52;;;;;;;5.13;1.30;;;7.60;99.90;;;;;;5114178;28;20495;-67
2022/01/18 04:07:18;;;;;;;3.78;1.02;;;7.70;99.90;;;;;;5113927;28;20059;-68
2022/01/18 04:09:44;;;;;;;18.95;2.13;;;7.60;99.90;;;;;;5115065;28;20031;-67
2022/01/18 04:12:10;;;;;;;7.80;1.15;;;7.60;99.90;;;;;;5113525;28;20028;-68
2022/01/18 04:14:35;;;;;;;6.65;1.77;;;7.70;99.90;;;;;;5113963;28;20032;-68
2022/01/18 04:17:12;;;;;;;9.88;2.17;;;7.60;99.90;;;;;;5125805;27;20064;-68
2022/01/18 04:27:52;;;;;;;5.43;1.70;;;7.60;99.90;;;;;;5113525;28;20031;-68
2022/01/18 04:30:18;;;;;;;8.13;1.23;;;7.60;99.90;;;;;;5113530;28;20026;-68
2022/01/18 04:32:44;;;;;;;4.65;1.15;;;7.60;99.90;;;;;;5114157;28;20023;-70
2022/01/18 04:35:10;;;;;;;6.97;1.05;;;7.60;99.90;;;;;;5113585;28;20377;-70
2022/01/18 04:37:35;;;;;;;5.72;0.65;;;7.60;99.90;;;;;;5112740;28;20027;-68
2022/01/18 04:40:10;;;;;;;17.85;2.10;;;7.60;99.90;;;;;;5112848;28;20032;-67
2022/01/18 04:43:00;;;;;;;6.70;1.08;;;7.50;99.90;;;;;;5113759;28;20110;-68
2022/01/18 04:51:00;;;;;;;6.18;1.38;;;7.50;99.90;;;;;;5113774;28;20039;-70
2022/01/18 04:53:30;;;;;;;6.72;1.30;;;7.50;99.90;;;;;;5111592;28;20035;-68
2022/01/18 04:55:59;;;;;;;17.02;2.47;;;7.40;99.90;;;;;;5112336;28;20043;-68
2022/01/18 04:58:26;;;;;;;9.10;1.25;;;7.40;99.90;;;;;;5113174;28;20024;-68
2022/01/18 05:00:54;;;;;;;4.53;1.42;;;7.40;99.90;;;;;;5113873;28;20027;-74
2022/01/18 05:03:20;;;;;;;6.97;1.00;;;7.40;99.90;;;;;;5112482;28;20499;-69
2022/01/18 05:05:48;;;;;;;4.53;0.73;;;7.40;99.90;;;;;;5114081;28;20027;-69
2022/01/18 05:08:14;;;;;;;6.43;0.88;;;7.40;99.90;;;;;;5112995;28;20487;-68
2022/01/18 05:10:49;;;;;;;7.50;1.05;;;7.40;99.90;;;;;;5111950;28;20035;-69
2022/01/18 05:13:31;;;;;;;6.72;0.80;;;7.40;99.90;;;;;;5113041;28;20047;-68
2022/01/18 05:16:20;;;;;;;7.30;1.02;;;7.40;99.90;;;;;;5113463;28;20027;-68
2022/01/18 05:23:55;;;;;;;4.53;0.73;;;7.40;99.90;;;;;;5117918;28;20056;-69
2022/01/18 05:26:21;;;;;;;8.70;0.65;;;7.40;99.90;;;;;;5117776;28;20027;-71
2022/01/18 05:28:48;;;;;;;5.88;0.93;;;7.40;99.90;;;;;;5117444;28;20031;-68
2022/01/18 05:31:14;;;;;;;2.05;0.55;;;7.40;99.90;;;;;;5116493;28;20059;-69
2022/01/18 05:33:41;;;;;;;6.35;0.68;;;7.40;99.90;;;;;;5115808;28;20066;-68
2022/01/18 05:36:07;;;;;;;3.28;0.98;;;7.40;99.90;;;;;;5115799;28;20043;-69
2022/01/18 05:38:33;;;;;;;3.30;0.70;;;7.30;99.90;;;;;;5115167;28;20035;-71
2022/01/18 05:41:04;;;;;;;3.28;0.90;;;7.40;99.90;;;;;;5116513;28;20492;-72
2022/01/18 05:43:29;;;;;;;4.80;0.77;;;7.30;99.90;;;;;;5115038;28;20031;-69
2022/01/18 05:45:55;;;;;;;7.35;1.08;;;7.30;99.90;;;;;;5115438;28;20024;-69
2022/01/18 05:48:21;;;;;;;7.53;1.15;;;7.30;99.90;;;;;;5116331;28;20505;-69
2022/01/18 05:50:46;;;;;;;5.47;0.90;;;7.30;99.90;;;;;;5116634;28;20027;-69
2022/01/18 05:53:12;;;;;;;8.75;0.98;;;7.40;99.90;;;;;;5114490;28;20023;-70
2022/01/18 05:55:38;;;;;;;5.90;0.68;;;7.30;99.90;;;;;;5117110;28;20112;-68
2022/01/18 05:58:04;;;;;;;12.45;0.95;;;7.40;99.90;;;;;;5117155;28;20457;-69
2022/01/18 06:00:31;;;;;;;4.72;1.00;;;7.40;99.90;;;;;;5115023;28;20026;-70
2022/01/18 06:08:09;;;;;;;5.15;0.70;;;7.40;99.90;;;;;;5118957;28;20035;-71
2022/01/18 06:10:35;;;;;;;6.95;1.15;;;7.40;99.90;;;;;;5116362;28;20099;-69
2022/01/18 06:13:02;;;;;;;9.43;0.88;;;7.40;99.90;;;;;;5116959;28;20062;-70
2022/01/18 06:15:28;;;;;;;5.07;0.85;;;7.40;99.90;;;;;;5116388;28;20059;-68
2022/01/18 06:17:55;;;;;;;1.45;0.63;;;7.40;99.90;;;;;;5117034;28;20023;-68
2022/01/18 06:20:21;;;;;;;6.68;0.85;;;7.50;99.90;;;;;;5116815;28;20047;-69
2022/01/18 06:22:49;;;;;;;6.85;0.90;;;7.40;99.90;;;;;;5116701;28;20481;-71
2022/01/18 06:25:15;;;;;;;15.18;1.30;;;7.40;99.90;;;;;;5115565;28;20085;-69
2022/01/18 06:27:40;;;;;;;3.60;1.52;;;7.40;99.90;;;;;;5117136;28;20103;-70
2022/01/18 06:30:09;;;;;;;7.60;0.90;;;7.40;99.90;;;;;;5116632;28;20396;-69
2022/01/18 06:32:39;;;;;;;3.88;0.68;;;7.50;99.90;;;;;;5115828;28;20077;-68
2022/01/18 06:35:06;;;;;;;4.55;0.75;;;7.40;99.90;;;;;;5115716;28;20115;-69
2022/01/18 06:37:32;;;;;;;5.03;1.65;;;7.50;99.90;;;;;;5115363;28;20019;-69
2022/01/18 06:39:59;;;;;;;5.85;1.70;;;7.50;99.90;;;;;;5114619;28;20483;-68
2022/01/18 06:42:25;;;;;;;3.78;1.15;;;7.60;99.90;;;;;;5113916;28;20032;-67
2022/01/18 06:44:52;;;;;;;3.60;0.70;;;7.60;99.90;;;;;;5114555;28;20103;-69
2022/01/18 06:47:19;;;;;;;8.80;1.15;;;7.60;99.90;;;;;;5114887;28;20107;-68
2022/01/18 06:49:45;;;;;;;7.60;1.73;;;7.70;99.90;;;;;;5115312;27;20493;-69
2022/01/18 06:52:10;;;;;;;6.97;1.20;;;7.70;99.90;;;;;;5097267;28;20037;-70
2022/01/18 06:54:36;;;;;;;5.85;1.83;;;7.70;99.90;;;;;;5114846;27;20059;-71
2022/01/18 06:57:02;;;;;;;3.30;0.60;;;7.70;99.90;;;;;;5115754;28;20027;-69
2022/01/18 06:59:27;;;;;;;5.45;0.80;;;7.70;99.90;;;;;;5115249;28;20024;-68
2022/01/18 07:01:53;;;;;;;6.82;1.50;;;7.70;99.90;;;;;;5114962;28;20490;-70
2022/01/18 07:04:19;;;;;;;3.60;0.80;;;7.70;99.90;;;;;;5113870;28;20111;-70
2022/01/18 07:06:45;;;;;;;4.38;1.00;;;7.70;99.90;;;;;;5115518;28;20027;-71
2022/01/18 07:09:12;;;;;;;19.25;2.13;;;7.70;99.90;;;;;;5117168;28;20023;-68
2022/01/18 07:11:39;;;;;;;6.03;1.52;;;7.70;99.90;;;;;;5114624;28;20019;-68
2022/01/18 07:14:05;;;;;;;4.57;1.85;;;7.70;99.90;;;;;;5115568;28;20026;-69
2022/01/18 07:16:30;;;;;;;8.60;2.72;;;7.70;99.90;;;;;;5114750;28;20023;-69
2022/01/18 07:18:56;;;;;;;7.32;2.17;;;7.70;99.90;;;;;;5115006;28;20133;-69
2022/01/18 07:21:22;;;;;;;8.75;2.42;;;7.60;99.90;;;;;;5114346;28;20020;-70
2022/01/18 07:23:47;;;;;;;5.63;1.88;;;7.60;99.90;;;;;;5114714;28;20051;-69
2022/01/18 07:26:13;;;;;;;7.57;2.15;;;7.70;99.90;;;;;;5114881;28;20495;-69
2022/01/18 07:28:39;;;;;;;8.57;1.98;;;7.60;99.90;;;;;;5113000;28;20055;-69
2022/01/18 07:31:04;;;;;;;7.53;2.55;;;7.60;99.90;;;;;;5115133;28;20461;-69
2022/01/18 07:33:30;;;;;;;12.48;5.78;;;7.60;99.90;;;;;;5114037;28;20031;-72
2022/01/18 07:35:56;;;;;;;13.85;4.75;;;7.50;99.90;;;;;;5115034;28;20031;-69
2022/01/18 07:38:21;;;;;;;11.52;5.05;;;7.40;99.90;;;;;;5113907;28;20541;-69
2022/01/18 07:40:49;;;;;;;11.85;5.15;;;7.40;99.90;;;;;;5114743;28;20058;-70
2022/01/18 07:43:17;;;;;;;14.95;6.05;;;7.20;99.90;;;;;;5113598;28;20461;-69
2022/01/18 07:45:45;;;;;;;10.38;5.13;;;7.40;99.90;;;;;;5112942;28;20034;-69
2022/01/18 07:48:11;;;;;;;11.55;6.20;;;7.30;99.90;;;;;;5113387;28;20042;-74
2022/01/18 07:50:38;;;;;;;16.45;6.18;;;7.20;99.90;;;;;;5113148;28;20387;-68
2022/01/18 07:53:05;;;;;;;13.55;5.93;;;7.10;99.90;;;;;;5113200;28;20062;-70
2022/01/18 07:55:30;;;;;;;16.40;7.07;;;7.20;99.90;;;;;;5113714;28;20374;-70
2022/01/18 07:57:58;;;;;;;17.25;6.20;;;7.20;99.90;;;;;;5115388;28;20049;-70
2022/01/18 08:00:24;;;;;;;17.02;7.15;;;7.30;99.90;;;;;;5113793;28;20380;-69
2022/01/18 08:02:50;;;;;;;12.63;6.88;;;7.30;99.90;;;;;;5114589;28;20031;-69
2022/01/18 08:05:16;;;;;;;22.00;7.63;;;7.30;99.90;;;;;;5113319;28;20024;-68
2022/01/18 08:07:42;;;;;;;16.38;7.63;;;7.30;99.90;;;;;;5112786;28;20081;-69
2022/01/18 08:10:09;;;;;;;15.18;7.25;;;7.40;99.90;;;;;;5113353;28;20384;-68
2022/01/18 08:12:35;;;;;;;16.88;7.82;;;7.50;99.90;;;;;;5114405;28;20031;-69
2022/01/18 08:15:11;;;;;;;15.15;7.55;;;7.50;99.90;;;;;;5114435;28;20043;-68
2022/01/18 08:17:37;;;;;;;17.50;8.45;;;7.50;99.90;;;;;;5112775;28;20036;-68
2022/01/18 08:20:02;;;;;;;12.70;7.55;;;7.60;99.90;;;;;;5114792;28;20102;-68
2022/01/18 08:22:28;;;;;;;17.10;6.75;;;7.70;99.90;;;;;;5115025;28;20047;-71
2022/01/18 08:24:54;;;;;;;16.48;6.90;;;7.60;99.90;;;;;;5118503;28;20040;-68
2022/01/18 08:27:21;;;;;;;21.27;7.40;;;7.70;99.90;;;;;;5124702;28;20125;-73
2022/01/18 08:29:47;;;;;;;13.32;8.02;;;7.70;99.90;;;;;;5120511;28;20026;-70
2022/01/18 08:32:12;;;;;;;16.25;7.80;;;7.80;99.90;;;;;;5118488;28;20030;-71
2022/01/18 08:34:38;;;;;;;16.83;9.25;;;7.80;99.90;;;;;;5122314;27;20193;-70
2022/01/18 08:37:04;;;;;;;15.15;8.73;;;7.80;99.90;;;;;;5125120;27;20019;-71
2022/01/18 08:39:30;;;;;;;20.02;9.52;;;7.80;99.90;;;;;;5119197;27;20376;-69
2022/01/18 08:41:55;;;;;;;14.07;8.85;;;7.90;99.90;;;;;;5115403;28;20027;-68
2022/01/18 08:44:21;;;;;;;21.40;9.73;;;7.80;99.90;;;;;;5113229;28;20023;-72
2022/01/18 08:46:48;;;;;;;18.58;9.75;;;7.90;99.90;;;;;;5114608;28;20091;-72
2022/01/18 08:49:14;;;;;;;15.38;7.88;;;7.80;99.90;;;;;;5117975;28;20039;-70
2022/01/18 08:51:39;;;;;;;20.10;8.20;;;8.00;99.90;;;;;;5113905;28;20027;-69
2022/01/18 08:54:05;;;;;;;24.90;8.25;;;8.00;99.90;;;;;;5113888;28;20124;-69
2022/01/18 08:56:31;;;;;;;20.13;9.27;;;8.10;99.90;;;;;;5113266;28;20035;-69
2022/01/18 08:58:57;;;;;;;14.88;8.40;;;8.20;99.90;;;;;;5113455;28;20051;-72
2022/01/18 09:01:23;;;;;;;10.25;5.22;;;8.30;99.90;;;;;;5113398;28;20027;-69
2022/01/18 09:03:50;;;;;;;13.75;6.00;;;8.40;99.90;;;;;;5114020;28;20081;-68
2022/01/18 09:06:17;;;;;;;10.35;6.72;;;8.50;99.90;;;;;;5114432;28;20030;-71
2022/01/18 09:08:43;;;;;;;16.75;6.85;;;8.40;99.90;;;;;;5114775;28;20422;-70
2022/01/18 09:11:13;;;;;;;15.98;6.65;;;8.50;99.90;;;;;;5114053;28;20377;-71
2022/01/18 09:13:40;;;;;;;11.85;6.90;;;8.60;99.90;;;;;;5112306;28;20030;-73
2022/01/18 09:16:09;;;;;;;20.58;8.20;;;8.70;99.90;;;;;;5112423;28;20039;-70
2022/01/18 09:18:35;;;;;;;15.80;6.03;;;8.90;99.90;;;;;;5120869;28;20020;-68
2022/01/18 09:21:01;;;;;;;11.85;4.90;;;8.90;99.90;;;;;;5133439;27;20027;-70
2022/01/18 09:23:27;;;;;;;16.35;7.30;;;8.80;99.90;;;;;;5126555;28;20441;-69
2022/01/18 09:25:53;;;;;;;18.75;10.50;;;8.80;99.90;;;;;;5117061;27;20039;-72
2022/01/18 09:28:18;;;;;;;15.10;9.40;;;8.70;99.90;;;;;;5126141;28;20027;-68
2022/01/18 09:30:44;;;;;;;19.30;9.88;;;8.50;99.90;;;;;;5112038;28;20027;-70
2022/01/18 09:33:10;;;;;;;20.80;10.60;;;8.50;99.90;;;;;;5111731;28;20024;-71
2022/01/18 09:35:37;;;;;;;19.10;11.23;;;8.30;99.90;;;;;;5113431;28;20084;-70
2022/01/18 09:38:04;;;;;;;20.95;10.77;;;8.20;99.90;;;;;;5120382;27;20038;-69
2022/01/18 09:40:33;;;;;;;22.55;11.05;;;8.10;99.90;;;;;;5115040;27;20031;-69
2022/01/18 09:43:00;;;;;;;24.58;10.38;;;8.10;99.90;;;;;;5130833;28;20031;-71
2022/01/18 09:45:29;;;;;;;32.95;10.50;;;8.20;99.90;;;;;;5112641;28;20031;-73
2022/01/18 09:47:57;;;;;;;17.05;9.90;;;8.40;99.90;;;;;;5124309;28;20032;-70
2022/01/18 09:50:29;;;;;;;20.42;9.57;;;8.60;99.90;;;;;;5124525;28;20044;-75
2022/01/18 09:52:56;;;;;;;21.08;11.20;;;8.70;99.90;;;;;;5118135;28;20031;-69
2022/01/18 09:55:28;;;;;;;21.42;10.30;;;8.60;99.90;;;;;;5116618;27;20072;-73
2022/01/18 09:57:55;;;;;;;19.95;9.82;;;8.50;99.90;;;;;;5118958;28;20443;-75
2022/01/18 10:00:24;;;;;;;18.55;10.45;;;8.60;99.90;;;;;;5113422;28;20122;-73
2022/01/18 10:02:50;;;;;;;23.83;9.45;;;8.60;99.90;;;;;;5110743;28;20457;-72
2022/01/18 10:05:29;;;;;;;20.15;9.55;;;8.60;99.90;;;;;;5119979;28;20027;-76
2022/01/18 10:08:02;;;;;;;13.20;8.32;;;8.80;99.90;;;;;;5121708;28;20028;-73
2022/01/18 10:10:44;;;;;;;17.20;8.82;;;8.70;99.90;;;;;;5119921;27;20430;-71
2022/01/18 10:13:18;;;;;;;19.63;9.55;;;8.70;99.90;;;;;;5120735;27;20460;-73
2022/01/18 10:16:12;;;;;;;21.90;11.07;;;8.60;99.90;;;;;;5117973;27;20035;-72
2022/01/18 10:18:48;;;;;;;21.67;10.50;;;8.40;99.90;;;;;;5115801;27;20096;-70
2022/01/18 10:21:35;;;;;;;18.65;9.38;;;8.30;99.90;;;;;;5121948;27;20069;-71
2022/01/18 10:24:25;;;;;;;24.65;9.25;;;8.40;99.90;;;;;;5116985;27;20094;-74
2022/01/18 10:26:54;;;;;;;18.13;9.80;;;8.50;99.90;;;;;;5128187;27;20135;-71
2022/01/18 10:29:26;;;;;;;18.92;9.48;;;8.70;99.90;;;;;;5125592;27;20037;-71
2022/01/18 10:37:05;;;;;;;13.38;8.02;;;8.90;99.90;;;;;;5123126;27;20054;-71
2022/01/18 10:39:37;;;;;;;15.02;8.13;;;9.00;99.90;;;;;;5127400;27;20053;-73
2022/01/18 10:42:29;;;;;;;;;;;8.90;99.90;;;;;;5132595;27;20023;-71
2022/01/18 10:45:08;;;;;;;16.90;8.00;;;8.80;99.90;;;;;;5107266;27;19910;-70
2022/01/18 10:47:36;;;;;;;20.05;8.40;;;8.90;99.90;;;;;;5120002;27;20026;-72
2022/01/18 10:50:11;;;;;;;17.20;8.40;;;8.90;99.90;;;;;;5122817;27;20032;-71
2022/01/18 10:52:37;;;;;;;17.40;8.65;;;9.10;99.90;;;;;;5118022;27;20429;-70
2022/01/18 10:55:03;;;;;;;11.45;6.30;;;9.00;99.90;;;;;;5116614;27;20122;-72
2022/01/18 10:57:38;;;;;;;13.88;6.40;;;9.00;99.90;;;;;;5115482;27;20070;-72
2022/01/18 11:00:04;;;;;;;8.32;3.92;;;9.00;99.90;;;;;;5132748;27;20468;-71
2022/01/18 11:02:34;;;;;;;10.82;4.57;;;9.10;99.90;;;;;;5116627;27;20072;-72
2022/01/18 11:05:10;;;;;;;7.72;4.00;;;9.20;99.90;;;;;;5118598;27;20032;-71
2022/01/18 11:07:38;;;;;;;7.20;3.17;;;9.10;99.90;;;;;;5127888;27;20446;-72
2022/01/18 11:10:05;;;;;;;10.25;2.65;;;9.20;99.90;;;;;;5125864;27;20473;-70
2022/01/18 11:12:43;;;;;;;5.75;1.75;;;9.10;99.90;;;;;;5121186;27;20582;-71
2022/01/18 11:15:16;;;;;;;4.15;1.33;;;9.00;99.90;;;;;;5124429;27;20031;-71
2022/01/18 11:17:49;;;;;;;8.35;3.67;;;8.90;99.90;;;;;;5122384;27;20039;-71
2022/01/18 11:20:15;;;;;;;4.25;1.65;;;9.00;99.90;;;;;;5120924;27;20028;-72
2022/01/18 11:22:42;;;;;;;5.75;1.77;;;8.90;99.90;;;;;;5119862;27;20110;-72
2022/01/18 11:25:08;;;;;;;5.95;3.30;;;8.90;99.90;;;;;;5111325;27;20095;-75
2022/01/18 11:27:35;;;;;;;5.10;2.20;;;8.70;99.90;;;;;;5117777;27;20055;-72
2022/01/18 11:30:03;;;;;;;6.28;2.83;;;8.50;99.90;;;;;;5127535;27;20029;-71
2022/01/18 11:32:30;;;;;;;3.60;1.70;;;8.60;99.90;;;;;;5129346;27;20435;-74
2022/01/18 11:35:11;;;;;;;7.70;2.80;;;8.60;99.90;;;;;;5123782;27;20035;-71
2022/01/18 11:38:05;;;;;;;3.70;2.13;;;8.60;99.90;;;;;;5110955;27;20046;-75
2022/01/18 11:40:45;;;;;;;9.23;1.83;;;8.70;99.90;;;;;;5128617;27;20031;-73
2022/01/18 11:43:12;;;;;;;4.45;1.60;;;8.80;99.90;;;;;;5112626;27;20473;-74
2022/01/18 11:45:40;;;;;;;4.95;1.52;;;9.00;99.90;;;;;;5116776;27;20306;-74
2022/01/18 11:48:18;;;;;;;4.38;1.98;;;9.00;99.90;;;;;;5121938;27;20058;-76
2022/01/18 11:51:02;;;;;;;3.10;1.10;;;9.00;99.90;;;;;;5114186;27;20063;-72
2022/01/18 11:53:43;;;;;;;6.97;1.27;;;9.00;99.90;;;;;;5122830;27;20030;-73
2022/01/18 11:56:36;;;;;;;16.38;4.20;;;8.90;99.90;;;;;;5118701;27;20024;-71
2022/01/18 11:59:18;;;;;;;14.50;2.47;;;9.10;99.90;;;;;;5117886;27;20036;-72
2022/01/18 12:01:53;;;;;;;5.18;2.22;;;9.30;99.90;;;;;;5118614;27;20030;-71
2022/01/18 12:04:59;;;;;;;5.75;1.90;;;9.30;99.90;;;;;;5114987;27;20115;-70
2022/01/18 12:07:33;;;;;;;4.10;2.03;;;9.10;99.90;;;;;;5112983;27;20031;-73
2022/01/18 12:10:07;;;;;;;21.02;3.38;;;9.00;99.90;;;;;;5115554;27;20107;-71
2022/01/18 12:12:44;;;;;;;1.85;1.25;;;9.00;99.90;;;;;;5114331;27;20367;-72
2022/01/18 12:15:16;;;;;;;3.80;2.15;;;8.80;99.90;;;;;;5124797;27;20364;-71
2022/01/18 12:17:56;;;;;;;;;;;8.70;99.90;;;;;;5114571;27;20126;-72
2022/01/18 12:20:43;;;;;;;11.27;2.25;;;8.60;99.90;;;;;;5115114;27;20660;-75
2022/01/18 12:23:18;;;;;;;8.00;1.80;;;8.80;99.90;;;;;;5112845;27;20066;-72
2022/01/18 12:26:00;;;;;;;9.15;1.70;;;9.00;99.90;;;;;;5123396;27;20372;-73
2022/01/18 12:34:25;;;;;;;4.45;1.60;;;8.60;99.90;;;;;;5116256;27;20114;-71
2022/01/18 12:37:20;;;;;;;7.13;2.37;;;8.50;99.90;;;;;;5126596;27;20039;-72
2022/01/18 12:40:05;;;;;;;11.68;2.80;;;8.50;99.90;;;;;;5120027;27;20042;-75
2022/01/18 12:45:09;;;;;;;4.15;1.40;;;8.60;99.90;;;;;;5115521;28;20128;-74
2022/01/18 12:47:36;;;;;;;12.80;1.95;;;8.80;99.90;;;;;;5112717;27;20023;-72
2022/01/18 12:50:05;;;;;;;7.03;1.63;;;8.90;99.90;;;;;;5127434;27;20019;-72
2022/01/18 12:52:54;;;;;;;5.13;1.80;;;9.10;99.90;;;;;;5114160;27;20015;-71
2022/01/18 12:55:31;;;;;;;5.82;2.00;;;9.20;99.90;;;;;;5124138;27;20031;-72
2022/01/18 12:58:01;;;;;;;3.45;1.25;;;9.20;99.90;;;;;;5120032;27;20055;-72
2022/01/18 13:00:27;;;;;;;3.30;1.38;;;9.10;99.90;;;;;;5125221;27;20366;-71
2022/01/18 13:02:58;;;;;;;2.08;1.15;;;8.80;99.90;;;;;;5114769;27;20030;-71
2022/01/18 13:05:39;;;;;;;2.42;0.93;;;8.80;99.90;;;;;;5132618;27;20020;-77
2022/01/18 13:08:05;;;;;;;1.48;0.57;;;8.70;99.90;;;;;;5130862;27;20118;-71
2022/01/18 13:10:48;;;;;;;4.03;1.38;;;8.60;99.90;;;;;;5121659;27;20350;-73
2022/01/18 13:13:19;;;;;;;7.93;1.67;;;8.70;99.90;;;;;;5116068;28;20423;-67
2022/01/18 13:15:51;;;;;;;5.90;2.75;;;8.80;99.90;;;;;;5116078;28;20365;-66
2022/01/18 13:23:56;;;;;;;2.30;0.93;;;10.60;99.90;;;;;;5123754;28;20094;-71
2022/01/18 13:26:34;;;;;;;7.07;0.73;;;9.90;99.90;;;;;;5113344;28;20122;-71
2022/01/18 13:29:14;;;;;;;5.15;0.73;;;9.60;99.90;;;;;;5131970;28;20035;-70
2022/01/18 13:31:43;;;;;;;2.83;0.70;;;9.60;99.90;;;;;;5132960;27;20094;-70
2022/01/18 13:34:13;;;;;;;6.03;1.17;;;9.50;99.90;;;;;;5133936;27;20027;-71
2022/01/18 13:36:55;;;;;;;6.88;1.25;;;9.20;99.90;;;;;;5132782;27;20054;-73
2022/01/18 13:39:39;;;;;;;3.55;0.55;;;8.90;99.90;;;;;;5133692;28;20085;-73
2022/01/18 13:42:09;;;;;;;2.58;0.75;;;8.80;99.90;;;;;;5130393;28;20031;-72
2022/01/18 13:44:35;;;;;;;2.08;0.50;;;8.80;99.90;;;;;;5133044;27;20484;-71
2022/01/18 13:47:12;;;;;;;3.10;0.68;;;8.60;99.90;;;;;;5136829;27;20022;-69
2022/01/18 13:49:38;;;;;;;4.22;0.70;;;8.60;99.90;;;;;;5137722;27;20459;-71
2022/01/18 13:52:06;;;;;;;5.30;0.85;;;8.80;99.90;;;;;;5121548;27;20023;-70
2022/01/18 13:54:52;;;;;;;1.30;0.47;;;8.90;99.90;;;;;;5137680;27;20031;-71
2022/01/18 13:57:21;;;;;;;2.65;0.45;;;8.80;99.90;;;;;;5138090;27;20035;-71
2022/01/18 13:59:49;;;;;;;4.32;0.40;;;8.80;99.90;;;;;;5119060;27;20043;-70
2022/01/18 14:02:21;;;;;;;2.30;0.20;;;8.60;99.90;;;;;;5136494;27;20333;-70
2022/01/18 14:05:05;;;;;;;3.63;0.52;;;8.60;99.90;;;;;;5136782;27;20482;-71
2022/01/18 14:07:31;;;;;;;3.97;0.85;;;8.60;99.90;;;;;;5136060;27;20103;-71
2022/01/18 14:10:00;;;;;;;0.98;0.20;;;8.70;99.90;;;;;;5135553;27;20046;-71
2022/01/18 14:12:34;;;;;;;0.50;0.20;;;8.80;99.90;;;;;;5136315;27;20047;-72
2022/01/18 14:15:00;;;;;;;1.65;0.22;;;8.90;99.90;;;;;;5135968;27;20459;-71
2022/01/18 14:17:26;;;;;;;0.30;0.10;;;8.80;99.90;;;;;;5137326;27;20019;-72
2022/01/18 14:20:08;;;;;;;1.40;0.30;;;8.70;99.90;;;;;;5139494;27;20364;-72
2022/01/18 14:22:36;;;;;;;0.75;0.10;;;8.60;99.90;;;;;;5138531;27;20031;-76
2022/01/18 14:25:05;;;;;;;0.55;0.10;;;8.60;99.90;;;;;;5139058;27;20035;-72
2022/01/18 14:27:34;;;;;;;0.60;0.20;;;8.60;99.90;;;;;;5138050;27;20034;-70
2022/01/18 14:30:06;;;;;;;1.98;0.40;;;8.50;99.90;;;;;;5116115;27;20039;-71